Time;durP1;ratioP1;P1;durP2;ratioP2;P2;SDS_P1;SDS_P2;PMS_P1;PMS_P2;Temp;Humidity;BMP_temperature;BMP_pressure;BME280_temperature;BME280_humidity;BME280_pressure;Samples;Min_cycle;Max_cycle;Signal;HPM_P1;HPM_P2
2023/12/30 00:00:06;;;;;;;;;;;;;;;7.94;81.67;100292.81;5027786;28;19933;-91
2023/12/30 00:02:45;;;;;;;;;;;;;;;7.90;82.22;100278.91;5025630;28;19933;-88
2023/12/30 00:05:12;;;;;;;;;;;;;;;7.86;82.76;100292.00;5025373;28;19979;-87
2023/12/30 00:07:39;;;;;;;;;;;;;;;7.87;82.78;100291.97;5030965;28;20020;-82
2023/12/30 00:10:08;;;;;;;;;;;;;;;7.95;81.24;100303.25;5032701;28;19948;-84
2023/12/30 00:12:35;;;;;;;;;;;;;;;8.02;80.42;100298.84;5030780;28;19925;-82
2023/12/30 00:15:02;;;;;;;;;;;;;;;8.25;77.59;100290.84;5022355;28;19931;-82
2023/12/30 00:17:29;;;;;;;;;;;;;;;8.35;76.84;100289.03;5030926;28;20503;-85
2023/12/30 00:19:57;;;;;;;;;;;;;;;8.38;75.80;100282.91;5029936;28;19925;-85
2023/12/30 00:22:24;;;;;;;;;;;;;;;8.46;74.75;100291.59;5026113;28;19929;-82
2023/12/30 00:24:50;;;;;;;;;;;;;;;8.43;74.73;100279.38;5028593;28;20015;-82
2023/12/30 00:27:17;;;;;;;;;;;;;;;8.47;73.94;100288.06;5028407;28;20312;-85
2023/12/30 00:29:44;;;;;;;;;;;;;;;8.56;72.87;100290.63;5031134;28;19925;-82
2023/12/30 00:32:11;;;;;;;;;;;;;;;8.59;72.89;100297.56;5029465;28;19925;-83
2023/12/30 00:34:37;;;;;;;;;;;;;;;8.49;73.77;100297.66;5027113;28;19925;-88
2023/12/30 00:37:04;;;;;;;;;;;;;;;8.59;72.98;100301.06;4995561;28;19925;-82
2023/12/30 00:39:31;;;;;;;;;;;;;;;8.57;72.33;100302.81;5029244;28;19929;-83
2023/12/30 00:41:58;;;;;;;;;;;;;;;8.57;72.35;100300.19;5011623;28;19931;-84
2023/12/30 00:44:25;;;;;;;;;;;;;;;8.61;72.25;100298.44;5033473;28;19932;-83
2023/12/30 00:46:51;;;;;;;;;;;;;;;8.49;73.12;100309.88;5032727;28;20390;-86
2023/12/30 00:49:18;;;;;;;;;;;;;;;8.53;73.03;100308.97;5031866;28;19925;-83
2023/12/30 00:51:45;;;;;;;;;;;;;;;8.44;73.60;100314.22;5032023;28;19925;-82
2023/12/30 00:54:12;;;;;;;;;;;;;;;8.39;74.08;100314.28;5027915;28;19936;-84
2023/12/30 00:56:39;;;;;;;;;;;;;;;8.34;74.45;100311.69;5026958;28;20044;-86
2023/12/30 00:59:05;;;;;;;;;;;;;;;8.36;74.92;100323.00;5028239;28;20484;-83
2023/12/30 01:01:32;;;;;;;;;;;;;;;8.38;75.12;100322.13;5031589;28;20004;-89
2023/12/30 01:03:59;;;;;;;;;;;;;;;8.44;74.69;100327.31;5029685;28;19926;-82
2023/12/30 01:06:26;;;;;;;;;;;;;;;8.34;75.40;100323.88;5029569;28;20276;-83
2023/12/30 01:08:53;;;;;;;;;;;;;;;8.40;74.91;100329.09;5036510;28;19929;-85
2023/12/30 01:11:19;;;;;;;;;;;;;;;8.30;75.49;100336.13;5036699;28;19957;-82
2023/12/30 01:13:46;;;;;;;;;;;;;;;8.23;76.03;100339.66;5034513;28;19944;-84
2023/12/30 01:16:14;;;;;;;;;;;;;;;8.16;76.87;100337.97;5029790;28;19925;-85
2023/12/30 01:18:40;;;;;;;;;;;;;;;8.14;77.64;100329.25;5032017;28;19929;-86
2023/12/30 01:21:07;;;;;;;;;;;;;;;8.13;78.21;100327.53;5032943;28;19925;-83
2023/12/30 01:23:34;;;;;;;;;;;;;;;8.22;76.77;100322.22;5033395;28;19925;-82
2023/12/30 01:26:01;;;;;;;;;;;;;;;8.25;77.04;100334.41;5031729;28;19979;-83
2023/12/30 01:28:27;;;;;;;;;;;;;;;8.22;77.75;100329.22;5030962;28;19933;-85
2023/12/30 01:30:54;;;;;;;;;;;;;;;8.17;77.83;100339.72;5035965;28;19925;-84
2023/12/30 01:33:21;;;;;;;;;;;;;;;8.17;77.95;100342.34;5033802;28;19972;-82
2023/12/30 01:35:48;;;;;;;;;;;;;;;8.18;78.01;100339.69;5027526;28;19944;-84
2023/12/30 01:38:15;;;;;;;;;;;;;;;8.31;77.47;100352.66;5035403;28;19935;-82
2023/12/30 01:40:41;;;;;;;;;;;;;;;8.20;78.37;100358.00;5042238;28;20012;-83
2023/12/30 01:43:21;;;;;;;;;;;;;;;8.10;79.26;100358.94;5034747;28;20300;-83
2023/12/30 01:45:48;;;;;;;;;;;;;;;8.09;79.61;100368.50;5032391;28;19936;-82
2023/12/30 01:48:15;;;;;;;;;;;;;;;8.11;79.55;100360.63;5014678;28;19956;-82
2023/12/30 01:50:42;;;;;;;;;;;;;;;8.00;79.98;100358.09;5015081;28;19925;-82
2023/12/30 01:53:08;;;;;;;;;;;;;;;7.94;80.13;100345.94;5031927;28;19979;-82
2023/12/30 01:55:35;;;;;;;;;;;;;;;7.86;80.72;100354.69;5033514;28;19992;-84
2023/12/30 01:58:02;;;;;;;;;;;;;;;7.94;79.52;100348.56;5029258;28;19935;-81
2023/12/30 02:00:29;;;;;;;;;;;;;;;8.05;78.54;100348.47;5033671;28;19929;-82
2023/12/30 02:02:55;;;;;;;;;;;;;;;7.95;78.74;100347.69;5016027;28;19925;-84
2023/12/30 02:05:22;;;;;;;;;;;;;;;7.81;79.42;100350.38;5014685;28;19984;-81
2023/12/30 02:07:49;;;;;;;;;;;;;;;7.74;79.63;100361.72;5034743;28;19933;-81
2023/12/30 02:10:15;;;;;;;;;;;;;;;7.79;78.79;100359.06;5041922;28;19931;-82
2023/12/30 02:12:43;;;;;;;;;;;;;;;7.99;77.16;100372.03;5031311;28;20024;-81
2023/12/30 02:15:13;;;;;;;;;;;;;;;8.00;76.86;100374.66;5033828;28;19925;-85
2023/12/30 02:17:39;;;;;;;;;;;;;;;8.00;77.15;100385.09;5040557;28;19925;-84
2023/12/30 02:20:06;;;;;;;;;;;;;;;8.12;76.14;100384.16;5038310;28;19933;-81
2023/12/30 02:22:33;;;;;;;;;;;;;;;8.03;76.46;100378.13;5019246;28;19972;-83
2023/12/30 02:25:01;;;;;;;;;;;;;;;7.92;76.65;100371.22;5039062;28;19925;-81
2023/12/30 02:27:28;;;;;;;;;;;;;;;7.98;75.82;100381.63;5017459;28;19936;-81
2023/12/30 02:29:54;;;;;;;;;;;;;;;8.09;74.92;100389.41;5040116;28;19925;-81
2023/12/30 02:32:21;;;;;;;;;;;;;;;8.01;74.89;100376.38;5036230;28;19947;-82
2023/12/30 02:34:48;;;;;;;;;;;;;;;8.10;74.65;100385.06;5034335;28;19992;-83
2023/12/30 02:37:14;;;;;;;;;;;;;;;8.39;72.90;100381.41;5026406;28;19976;-82
2023/12/30 02:39:41;;;;;;;;;;;;;;;8.20;73.81;100386.75;5030580;28;19977;-82
2023/12/30 02:42:08;;;;;;;;;;;;;;;8.18;73.82;100383.25;5037973;28;19925;-84
2023/12/30 02:44:34;;;;;;;;;;;;;;;8.17;74.12;100371.09;5037214;28;20367;-82
2023/12/30 02:47:01;;;;;;;;;;;;;;;8.30;73.43;100383.19;5035659;28;19936;-81
2023/12/30 02:49:30;;;;;;;;;;;;;;;8.35;72.99;100370.94;5036546;28;19978;-84
2023/12/30 02:51:57;;;;;;;;;;;;;;;8.43;72.49;100388.31;5033493;28;20443;-81
2023/12/30 02:54:24;;;;;;;;;;;;;;;8.19;73.55;100385.84;5031650;28;19925;-83
2023/12/30 02:56:50;;;;;;;;;;;;;;;8.10;74.07;100385.06;5036586;28;19931;-82
2023/12/30 02:59:17;;;;;;;;;;;;;;;8.06;74.16;100393.78;5030324;28;19925;-81
2023/12/30 03:01:44;;;;;;;;;;;;;;;7.91;74.88;100390.38;5032734;28;19948;-81
2023/12/30 03:04:10;;;;;;;;;;;;;;;7.99;74.27;100393.84;5035477;28;19948;-83
2023/12/30 03:06:37;;;;;;;;;;;;;;;8.22;73.31;100403.28;5034171;28;19925;-83
2023/12/30 03:09:04;;;;;;;;;;;;;;;8.22;73.50;100395.44;5031014;28;19926;-81
2023/12/30 03:11:31;;;;;;;;;;;;;;;8.10;74.18;100395.53;5037258;28;19925;-81
2023/12/30 03:13:58;;;;;;;;;;;;;;;8.16;74.03;100387.63;5037678;28;19931;-81
2023/12/30 03:16:25;;;;;;;;;;;;;;;8.01;75.04;100397.31;5024526;28;20020;-87
2023/12/30 03:18:51;;;;;;;;;;;;;;;7.82;78.66;100395.63;5036242;28;19951;-84
2023/12/30 03:21:19;;;;;;;;;;;;;;;7.71;80.47;100400.06;5029019;28;20351;-83
2023/12/30 03:23:45;;;;;;;;;;;;;;;7.68;80.71;100402.69;5040976;28;19933;-82
2023/12/30 03:26:12;;;;;;;;;;;;;;;7.66;81.35;100400.94;5035568;28;19925;-81
2023/12/30 03:28:39;;;;;;;;;;;;;;;7.62;81.47;100396.59;5026849;28;19925;-85
2023/12/30 03:31:07;;;;;;;;;;;;;;;7.65;81.38;100404.41;5034987;28;19932;-81
2023/12/30 03:33:34;;;;;;;;;;;;;;;7.63;81.43;100397.47;5033208;28;19933;-82
2023/12/30 03:36:01;;;;;;;;;;;;;;;7.58;82.37;100397.47;5017255;28;19943;-84
2023/12/30 03:38:27;;;;;;;;;;;;;;;7.53;82.73;100399.25;5030239;28;19925;-82
2023/12/30 03:40:54;;;;;;;;;;;;;;;7.49;82.81;100393.16;5035247;28;19925;-84
2023/12/30 03:43:21;;;;;;;;;;;;;;;7.41;83.53;100394.06;5034946;28;19925;-84
2023/12/30 03:45:48;;;;;;;;;;;;;;;7.44;83.47;100381.00;5034574;28;19931;-83
2023/12/30 03:48:15;;;;;;;;;;;;;;;7.45;83.55;100388.81;5031582;28;19933;-84
2023/12/30 03:50:42;;;;;;;;;;;;;;;7.37;83.54;100380.16;5028642;28;19997;-82
2023/12/30 03:53:08;;;;;;;;;;;;;;;7.40;83.49;100380.16;5034751;28;19926;-82
2023/12/30 03:55:35;;;;;;;;;;;;;;;7.54;81.79;100385.31;5033966;28;19930;-85
2023/12/30 03:58:02;;;;;;;;;;;;;;;7.52;82.07;100389.69;5035104;28;20008;-83
2023/12/30 04:00:29;;;;;;;;;;;;;;;7.48;82.37;100385.34;5017618;28;19929;-82
2023/12/30 04:02:55;;;;;;;;;;;;;;;7.48;82.71;100387.94;5029843;28;20004;-86
2023/12/30 04:05:22;;;;;;;;;;;;;;;7.42;83.20;100396.66;5033727;28;19925;-85
2023/12/30 04:07:50;;;;;;;;;;;;;;;7.45;82.81;100403.63;5032742;28;19925;-83
2023/12/30 04:10:17;;;;;;;;;;;;;;;7.42;83.06;100386.22;5031409;28;19925;-82
2023/12/30 04:12:44;;;;;;;;;;;;;;;7.51;81.43;100397.53;5034894;28;19925;-83
2023/12/30 04:15:11;;;;;;;;;;;;;;;7.51;81.92;100390.53;5034999;28;19925;-82
2023/12/30 04:17:38;;;;;;;;;;;;;;;7.41;82.70;100388.84;5026802;28;19929;-82
2023/12/30 04:20:08;;;;;;;;;;;;;;;7.56;80.04;100403.56;5035049;28;19928;-81
2023/12/30 04:22:34;;;;;;;;;;;;;;;7.79;77.22;100400.88;5030847;28;19939;-82
2023/12/30 04:25:02;;;;;;;;;;;;;;;7.96;75.88;100396.44;5031622;28;19967;-82
2023/12/30 04:27:29;;;;;;;;;;;;;;;7.91;76.06;100395.59;5031585;28;19925;-82
2023/12/30 04:29:56;;;;;;;;;;;;;;;7.84;76.45;100396.50;5029920;28;19925;-83
2023/12/30 04:32:24;;;;;;;;;;;;;;;7.72;77.60;100400.06;5030064;28;19925;-83
2023/12/30 04:34:51;;;;;;;;;;;;;;;7.62;78.25;100394.00;5026263;28;19925;-82
2023/12/30 04:37:18;;;;;;;;;;;;;;;7.58;80.58;100402.69;5031903;28;19948;-82
2023/12/30 04:39:45;;;;;;;;;;;;;;;7.53;81.08;100398.38;5040195;28;19949;-82
2023/12/30 04:42:12;;;;;;;;;;;;;;;7.49;81.41;100402.75;5038243;28;19925;-82
2023/12/30 04:44:39;;;;;;;;;;;;;;;7.46;82.19;100392.31;5020087;28;20021;-83
2023/12/30 04:47:06;;;;;;;;;;;;;;;7.41;82.22;100396.66;5036248;28;19931;-82
2023/12/30 04:49:33;;;;;;;;;;;;;;;7.39;82.21;100411.47;5037006;28;19972;-83
2023/12/30 04:52:00;;;;;;;;;;;;;;;7.47;81.39;100414.91;5038106;28;19932;-81
2023/12/30 04:54:27;;;;;;;;;;;;;;;7.46;81.17;100408.84;5034028;28;20007;-82
2023/12/30 04:56:53;;;;;;;;;;;;;;;7.57;80.42;100411.41;5030183;28;19926;-82
2023/12/30 04:59:20;;;;;;;;;;;;;;;7.73;78.83;100419.19;5037559;28;19926;-82
2023/12/30 05:01:47;;;;;;;;;;;;;;;7.60;80.77;100419.25;5031477;28;19925;-83
2023/12/30 05:04:14;;;;;;;;;;;;;;;7.69;79.56;100417.47;5043609;28;19925;-90
2023/12/30 05:06:40;;;;;;;;;;;;;;;7.62;80.01;100417.50;5037363;28;20019;-82
2023/12/30 05:09:08;;;;;;;;;;;;;;;7.77;77.91;100421.78;5036918;28;19931;-82
2023/12/30 05:11:35;;;;;;;;;;;;;;;7.94;76.37;100416.50;5037200;28;19929;-83
2023/12/30 05:14:02;;;;;;;;;;;;;;;8.08;75.60;100411.22;5038738;28;19932;-84
2023/12/30 05:16:28;;;;;;;;;;;;;;;8.14;75.22;100413.78;5045385;28;19932;-82
2023/12/30 05:18:55;;;;;;;;;;;;;;;8.22;74.52;100410.25;5038607;28;20025;-82
2023/12/30 05:21:22;;;;;;;;;;;;;;;8.21;74.72;100418.97;5036342;28;19925;-83
2023/12/30 05:23:49;;;;;;;;;;;;;;;8.16;75.04;100421.63;5037882;28;19925;-84
2023/12/30 05:26:16;;;;;;;;;;;;;;;8.06;75.79;100427.78;5030683;28;19940;-83
2023/12/30 05:28:42;;;;;;;;;;;;;;;8.05;75.51;100423.41;5037806;28;19925;-84
2023/12/30 05:31:09;;;;;;;;;;;;;;;7.82;78.78;100442.66;5037469;28;19947;-82
2023/12/30 05:33:36;;;;;;;;;;;;;;;7.70;80.60;100437.50;5033351;28;19932;-82
2023/12/30 05:36:03;;;;;;;;;;;;;;;7.63;81.18;100442.75;5037409;28;19925;-82
2023/12/30 05:38:29;;;;;;;;;;;;;;;7.60;81.49;100447.97;5042279;28;19953;-84
2023/12/30 05:40:56;;;;;;;;;;;;;;;7.56;82.47;100446.25;5035510;28;19931;-83
2023/12/30 05:43:23;;;;;;;;;;;;;;;7.49;83.04;100442.78;5035358;28;19925;-82
2023/12/30 05:45:52;;;;;;;;;;;;;;;7.45;83.56;100459.31;5037418;28;19952;-85
2023/12/30 05:48:19;;;;;;;;;;;;;;;7.43;84.18;100444.50;5033025;28;20016;-87
2023/12/30 05:50:46;;;;;;;;;;;;;;;7.38;84.50;100452.38;5033924;28;19929;-82
2023/12/30 05:53:12;;;;;;;;;;;;;;;7.39;84.75;100448.88;5033468;28;19929;-82
2023/12/30 05:55:39;;;;;;;;;;;;;;;7.35;84.84;100456.75;5019053;28;19925;-82
2023/12/30 05:58:06;;;;;;;;;;;;;;;7.31;85.56;100456.75;5033333;28;19954;-90
2023/12/30 06:00:33;;;;;;;;;;;;;;;7.35;85.11;100451.50;5032781;28;19925;-82
2023/12/30 06:02:59;;;;;;;;;;;;;;;7.35;84.98;100456.75;5033981;28;19999;-82
2023/12/30 06:05:26;;;;;;;;;;;;;;;7.31;85.08;100451.53;5037567;28;19925;-84
2023/12/30 06:07:53;;;;;;;;;;;;;;;7.28;85.25;100459.34;5032884;28;19926;-83
2023/12/30 06:10:20;;;;;;;;;;;;;;;7.29;85.52;100453.25;5034547;28;19993;-83
2023/12/30 06:12:46;;;;;;;;;;;;;;;7.29;85.17;100460.22;5034215;28;19925;-83
2023/12/30 06:15:13;;;;;;;;;;;;;;;7.30;85.38;100456.75;5036544;28;19948;-82
2023/12/30 06:17:40;;;;;;;;;;;;;;;7.29;85.11;100455.84;5035081;28;19933;-82
2023/12/30 06:20:09;;;;;;;;;;;;;;;7.28;85.48;100461.94;5033076;28;19932;-83
2023/12/30 06:22:36;;;;;;;;;;;;;;;7.26;85.67;100468.06;5032608;28;19935;-82
2023/12/30 06:25:03;;;;;;;;;;;;;;;7.29;84.93;100468.91;5032471;28;19925;-84
2023/12/30 06:27:30;;;;;;;;;;;;;;;7.27;84.92;100472.38;5033094;28;20396;-84
2023/12/30 06:29:57;;;;;;;;;;;;;;;7.32;84.31;100473.25;5033063;28;19925;-87
2023/12/30 06:32:24;;;;;;;;;;;;;;;7.34;84.50;100481.09;5035990;28;19947;-82
2023/12/30 06:34:50;;;;;;;;;;;;;;;7.38;84.10;100482.84;5033987;28;20411;-82
2023/12/30 06:37:17;;;;;;;;;;;;;;;7.38;84.09;100488.06;5035518;28;19926;-86
2023/12/30 06:39:44;;;;;;;;;;;;;;;7.41;83.75;100482.81;5022570;28;19925;-82
2023/12/30 06:42:11;;;;;;;;;;;;;;;7.42;83.70;100484.56;5033588;28;20014;-87
2023/12/30 06:44:38;;;;;;;;;;;;;;;7.46;83.63;100491.53;5014150;28;20015;-82
2023/12/30 06:47:05;;;;;;;;;;;;;;;7.47;83.42;100488.03;5025455;28;19925;-81
2023/12/30 06:49:32;;;;;;;;;;;;;;;7.42;83.87;100488.03;5034212;28;19971;-82
2023/12/30 06:51:59;;;;;;;;;;;;;;;7.42;83.74;100492.41;5036823;28;19972;-81
2023/12/30 06:54:25;;;;;;;;;;;;;;;7.47;83.33;100498.47;5038382;28;19925;-82
2023/12/30 06:56:53;;;;;;;;;;;;;;;7.49;83.07;100486.31;5036132;28;19929;-82
2023/12/30 06:59:20;;;;;;;;;;;;;;;7.50;83.51;100495.84;5037382;28;19924;-83
2023/12/30 07:01:47;;;;;;;;;;;;;;;7.47;83.61;100488.91;5038563;28;19979;-82
2023/12/30 07:04:14;;;;;;;;;;;;;;;7.47;83.87;100488.03;5036623;28;19983;-84
2023/12/30 07:06:41;;;;;;;;;;;;;;;7.48;83.80;100493.25;5036633;28;19925;-81
2023/12/30 07:09:07;;;;;;;;;;;;;;;7.45;83.79;100492.41;5035214;28;19948;-84
2023/12/30 07:11:34;;;;;;;;;;;;;;;7.45;84.15;100500.22;5038141;28;19933;-83
2023/12/30 07:14:01;;;;;;;;;;;;;;;7.45;84.00;100495.00;5034426;28;19932;-81
2023/12/30 07:16:28;;;;;;;;;;;;;;;7.44;84.17;100496.75;5031936;28;19933;-84
2023/12/30 07:18:54;;;;;;;;;;;;;;;7.42;84.17;100497.63;5033679;28;19925;-84
2023/12/30 07:21:21;;;;;;;;;;;;;;;7.42;84.34;100495.03;5028659;28;19932;-82
2023/12/30 07:23:48;;;;;;;;;;;;;;;7.48;84.02;100500.22;5030326;28;19940;-84
2023/12/30 07:26:14;;;;;;;;;;;;;;;7.46;84.13;100500.22;5014606;28;19951;-87
2023/12/30 07:28:42;;;;;;;;;;;;;;;7.46;84.23;100501.97;5031340;28;19931;-85
2023/12/30 07:31:08;;;;;;;;;;;;;;;7.46;83.95;100508.06;5029391;28;19925;-82
2023/12/30 07:33:35;;;;;;;;;;;;;;;7.45;84.07;100508.06;5015532;28;19933;-81
2023/12/30 07:36:06;;;;;;;;;;;;;;;7.45;84.13;100506.31;5024952;28;19925;-84
2023/12/30 07:38:33;;;;;;;;;;;;;;;7.48;84.01;100510.66;5017134;28;19925;-82
2023/12/30 07:40:59;;;;;;;;;;;;;;;7.45;84.14;100508.94;5040780;28;19972;-82
2023/12/30 07:43:26;;;;;;;;;;;;;;;7.47;84.04;100509.81;5034241;28;19976;-82
2023/12/30 07:45:53;;;;;;;;;;;;;;;7.52;83.96;100507.19;5018643;28;19925;-82
2023/12/30 07:48:19;;;;;;;;;;;;;;;7.51;84.15;100518.50;5043244;28;19986;-81
2023/12/30 07:50:46;;;;;;;;;;;;;;;7.53;83.66;100508.94;5031988;28;20004;-82
2023/12/30 07:53:13;;;;;;;;;;;;;;;7.57;83.19;100508.03;5033927;28;19925;-82
2023/12/30 07:55:39;;;;;;;;;;;;;;;7.60;82.99;100509.78;5035746;28;19967;-81
2023/12/30 07:58:06;;;;;;;;;;;;;;;7.60;83.03;100513.28;5027604;28;20261;-83
2023/12/30 08:00:33;;;;;;;;;;;;;;;7.62;82.93;100508.91;5029596;28;19933;-82
2023/12/30 08:03:00;;;;;;;;;;;;;;;7.63;82.92;100510.66;5018432;28;19925;-83
2023/12/30 08:05:27;;;;;;;;;;;;;;;7.65;83.10;100508.03;5045174;28;19925;-82
2023/12/30 08:07:54;;;;;;;;;;;;;;;7.69;82.92;100511.50;5033166;28;20381;-83
2023/12/30 08:10:21;;;;;;;;;;;;;;;7.70;82.55;100513.25;5026369;28;19979;-84
2023/12/30 08:12:47;;;;;;;;;;;;;;;7.74;82.48;100507.16;5029302;28;19933;-83
2023/12/30 08:15:14;;;;;;;;;;;;;;;7.85;81.57;100515.84;5043909;28;19925;-83
2023/12/30 08:17:41;;;;;;;;;;;;;;;7.84;81.74;100517.56;5036585;28;19950;-83
2023/12/30 08:20:08;;;;;;;;;;;;;;;7.89;81.69;100506.22;5039977;28;20002;-83
2023/12/30 08:22:34;;;;;;;;;;;;;;;7.85;82.08;100505.38;5040900;28;19936;-83
2023/12/30 08:25:02;;;;;;;;;;;;;;;7.85;81.94;100510.59;5037256;28;19971;-83
2023/12/30 08:27:29;;;;;;;;;;;;;;;7.83;82.18;100508.00;5035831;28;19988;-84
2023/12/30 08:29:56;;;;;;;;;;;;;;;7.83;82.27;100507.13;5015185;28;19983;-82
2023/12/30 08:32:22;;;;;;;;;;;;;;;7.89;81.72;100506.22;5035881;28;19933;-82
2023/12/30 08:34:50;;;;;;;;;;;;;;;8.08;80.58;100512.25;5019562;28;19932;-84
2023/12/30 08:37:17;;;;;;;;;;;;;;;8.06;80.84;100519.25;5030118;28;19935;-83
2023/12/30 08:39:45;;;;;;;;;;;;;;;8.00;81.52;100507.94;5032113;28;19925;-82
2023/12/30 08:42:12;;;;;;;;;;;;;;;8.03;81.54;100501.81;5034014;28;19987;-82
2023/12/30 08:44:43;;;;;;;;;;;;;;;8.10;81.44;100510.53;5034074;28;19932;-82
2023/12/30 08:47:11;;;;;;;;;;;;;;;8.15;81.24;100508.75;5032064;28;20359;-82
2023/12/30 08:49:38;;;;;;;;;;;;;;;8.18;80.56;100503.50;5027425;28;20059;-84
2023/12/30 08:52:05;;;;;;;;;;;;;;;8.15;81.24;100509.63;5017066;28;19956;-83
2023/12/30 08:54:31;;;;;;;;;;;;;;;8.15;81.03;100508.75;5036541;28;19971;-83
2023/12/30 08:56:58;;;;;;;;;;;;;;;8.14;80.83;100514.84;5031285;28;19925;-83
2023/12/30 08:59:25;;;;;;;;;;;;;;;8.18;80.67;100527.03;5032908;28;19925;-83
2023/12/30 09:01:52;;;;;;;;;;;;;;;8.23;80.16;100527.91;5031836;28;20020;-82
2023/12/30 09:04:19;;;;;;;;;;;;;;;8.26;79.82;100530.50;5034146;28;19925;-83
2023/12/30 09:06:46;;;;;;;;;;;;;;;8.33;80.01;100529.59;5033028;28;19932;-82
2023/12/30 09:09:13;;;;;;;;;;;;;;;8.40;79.61;100529.56;5034024;28;19932;-83
2023/12/30 09:11:40;;;;;;;;;;;;;;;8.47;79.67;100531.31;5038492;28;19939;-83
2023/12/30 09:14:06;;;;;;;;;;;;;;;8.58;79.28;100532.13;5039426;28;19935;-83
2023/12/30 09:16:33;;;;;;;;;;;;;;;8.66;79.14;100532.97;5035805;28;19936;-83
2023/12/30 09:19:00;;;;;;;;;;;;;;;8.67;78.44;100526.81;5025810;28;19929;-83
2023/12/30 09:21:27;;;;;;;;;;;;;;;8.75;78.66;100533.75;5035537;28;19925;-83
2023/12/30 09:23:53;;;;;;;;;;;;;;;8.82;78.34;100522.38;5018475;28;19935;-83
2023/12/30 09:26:20;;;;;;;;;;;;;;;8.84;77.89;100531.09;5039650;28;20380;-83
2023/12/30 09:28:47;;;;;;;;;;;;;;;8.85;77.60;100535.47;5038609;28;20384;-82
2023/12/30 09:31:14;;;;;;;;;;;;;;;8.82;77.22;100540.69;5045653;28;20040;-83
2023/12/30 09:33:40;;;;;;;;;;;;;;;8.84;76.80;100541.56;5054816;28;19925;-84
2023/12/30 09:36:07;;;;;;;;;;;;;;;8.83;76.91;100547.69;5031201;28;19974;-83
2023/12/30 09:38:34;;;;;;;;;;;;;;;8.84;77.50;100546.81;5044641;28;19936;-83
2023/12/30 09:41:01;;;;;;;;;;;;;;;8.89;76.63;100550.25;5023489;28;19948;-83
2023/12/30 09:43:27;;;;;;;;;;;;;;;8.98;76.70;100549.31;5038569;28;19925;-83
2023/12/30 09:45:55;;;;;;;;;;;;;;;8.99;76.98;100546.72;5046335;28;19931;-84
2023/12/30 09:48:26;;;;;;;;;;;;;;;8.98;77.05;100544.09;5043861;28;19931;-84
2023/12/30 09:50:55;;;;;;;;;;;;;;;8.98;76.91;100550.19;5025589;28;19947;-82
2023/12/30 09:53:22;;;;;;;;;;;;;;;9.01;77.16;100554.56;5039149;28;19925;-83
2023/12/30 09:55:52;;;;;;;;;;;;;;;9.01;77.04;100547.56;5045797;28;20006;-83
2023/12/30 09:58:20;;;;;;;;;;;;;;;9.04;75.97;100552.78;5037620;28;19964;-83
2023/12/30 10:00:47;;;;;;;;;;;;;;;9.12;74.50;100550.09;5038464;28;20368;-84
2023/12/30 10:03:15;;;;;;;;;;;;;;;9.11;75.71;100553.59;5050181;28;19968;-83
2023/12/30 10:05:41;;;;;;;;;;;;;;;9.09;75.54;100557.09;5037927;28;20336;-83
2023/12/30 10:08:08;;;;;;;;;;;;;;;9.10;75.10;100553.63;5042792;28;19925;-83
2023/12/30 10:10:38;;;;;;;;;;;;;;;9.13;75.03;100549.22;5054663;28;19925;-84
2023/12/30 10:13:05;;;;;;;;;;;;;;;9.26;74.94;100555.22;5056317;28;19978;-82
2023/12/30 10:15:38;;;;;;;;;;;;;;;9.35;74.35;100549.91;5042760;28;20008;-83
2023/12/30 10:18:07;;;;;;;;;;;;;;;9.43;73.22;100555.09;5016790;28;20036;-83
2023/12/30 10:20:37;;;;;;;;;;;;;;;9.63;73.40;100548.81;5039651;28;19925;-83
2023/12/30 10:23:04;;;;;;;;;;;;;;;9.62;71.81;100547.94;5031978;28;19931;-83
2023/12/30 10:25:31;;;;;;;;;;;;;;;9.62;71.24;100547.09;5031779;28;19925;-83
2023/12/30 10:27:57;;;;;;;;;;;;;;;9.63;71.09;100548.81;5031287;28;19969;-84
2023/12/30 10:30:24;;;;;;;;;;;;;;;9.64;71.62;100547.94;5043082;28;20052;-83
2023/12/30 10:32:51;;;;;;;;;;;;;;;9.58;70.95;100546.22;5042884;28;19931;-83
2023/12/30 10:35:17;;;;;;;;;;;;;;;9.63;70.24;100549.69;5052760;28;20023;-82
2023/12/30 10:37:46;;;;;;;;;;;;;;;9.66;71.16;100554.91;5047440;28;19995;-83
2023/12/30 10:40:13;;;;;;;;;;;;;;;9.74;70.83;100560.06;5025359;28;19992;-82
2023/12/30 10:42:40;;;;;;;;;;;;;;;9.74;70.61;100558.28;5017894;28;19929;-82
2023/12/30 10:45:07;;;;;;;;;;;;;;;9.78;70.13;100555.66;5021601;28;19925;-83
2023/12/30 10:47:37;;;;;;;;;;;;;;;9.89;70.40;100559.91;5043105;28;19964;-83
2023/12/30 10:50:04;;;;;;;;;;;;;;;9.90;70.14;100550.28;5043608;28;20356;-85
2023/12/30 10:52:32;;;;;;;;;;;;;;;10.08;69.25;100544.84;5053403;28;20360;-82
2023/12/30 10:55:18;;;;;;;;;;;;;;;10.25;68.36;100554.25;5040622;28;20280;-83
2023/12/30 10:57:49;;;;;;;;;;;;;;;10.44;67.79;100547.94;5035684;28;19968;-82
2023/12/30 11:00:20;;;;;;;;;;;;;;;10.55;66.47;100546.94;5028625;28;19929;-83
2023/12/30 11:02:47;;;;;;;;;;;;;;;10.69;67.00;100537.13;5032519;28;19929;-82
2023/12/30 11:05:16;;;;;;;;;;;;;;;10.73;66.14;100544.06;5016996;28;19925;-84
2023/12/30 11:07:43;;;;;;;;;;;;;;;10.71;64.98;100537.94;5014873;28;20281;-83
2023/12/30 11:10:17;;;;;;;;;;;;;;;10.81;64.32;100533.44;5030650;28;20008;-82
2023/12/30 11:12:44;;;;;;;;;;;;;;;11.01;64.96;100540.13;5016460;28;19928;-83
2023/12/30 11:15:24;;;;;;;;;;;;;;;11.01;63.70;100538.41;5035786;28;19936;-83
2023/12/30 11:17:50;;;;;;;;;;;;;;;11.03;63.70;100535.75;5020107;28;19940;-85
2023/12/30 11:20:24;;;;;;;;;;;;;;;10.94;63.08;100528.88;5035444;28;19972;-83
2023/12/30 11:22:54;;;;;;;;;;;;;;;11.11;63.62;100521.59;5030149;28;20380;-83
2023/12/30 11:25:21;;;;;;;;;;;;;;;11.23;63.48;100523.16;5028918;28;19928;-83
2023/12/30 11:28:00;;;;;;;;;;;;;;;11.26;63.05;100524.88;5035393;28;20353;-83
2023/12/30 11:30:26;;;;;;;;;;;;;;;11.02;61.60;100510.38;5015043;28;19933;-82
2023/12/30 11:32:55;;;;;;;;;;;;;;;10.99;61.78;100505.19;5031763;28;19940;-84
2023/12/30 11:35:24;;;;;;;;;;;;;;;11.02;62.21;100505.13;5017181;28;19925;-83
2023/12/30 11:37:53;;;;;;;;;;;;;;;10.89;61.31;100499.19;5030809;28;19936;-84
2023/12/30 11:40:19;;;;;;;;;;;;;;;10.77;61.29;100495.84;5034481;28;19933;-84
2023/12/30 11:42:46;;;;;;;;;;;;;;;10.56;61.31;100496.19;5027807;28;19992;-83
2023/12/30 11:45:14;;;;;;;;;;;;;;;10.61;61.47;100489.97;5033772;28;19940;-83
2023/12/30 11:47:40;;;;;;;;;;;;;;;10.55;62.92;100483.97;5037815;28;19935;-84
2023/12/30 11:50:07;;;;;;;;;;;;;;;10.59;62.18;100483.88;5035451;28;20049;-83
2023/12/30 11:52:41;;;;;;;;;;;;;;;10.63;63.21;100492.59;5035608;28;19929;-82
2023/12/30 11:55:08;;;;;;;;;;;;;;;10.60;62.53;100475.13;5017890;28;19951;-82
2023/12/30 11:57:36;;;;;;;;;;;;;;;10.61;61.92;100478.63;5033914;28;19925;-83
2023/12/30 12:00:03;;;;;;;;;;;;;;;10.63;61.78;100476.84;5034908;28;19925;-83
2023/12/30 12:02:30;;;;;;;;;;;;;;;10.75;61.91;100479.28;5017898;28;19932;-82
2023/12/30 12:04:57;;;;;;;;;;;;;;;10.97;62.39;100471.06;5035040;28;19925;-83
2023/12/30 12:07:24;;;;;;;;;;;;;;;10.94;61.59;100465.88;5033421;28;19925;-83
2023/12/30 12:09:50;;;;;;;;;;;;;;;10.85;60.55;100471.25;5035047;28;19925;-84
2023/12/30 12:12:23;;;;;;;;;;;;;;;10.78;60.19;100458.22;5037944;28;20016;-83
2023/12/30 12:14:51;;;;;;;;;;;;;;;10.88;60.75;100456.34;5039779;28;19931;-83
2023/12/30 12:17:19;;;;;;;;;;;;;;;10.79;60.79;100452.09;5053952;28;19925;-83
2023/12/30 12:19:46;;;;;;;;;;;;;;;10.72;61.11;100452.22;5036967;28;19975;-83
2023/12/30 12:22:13;;;;;;;;;;;;;;;10.73;61.88;100453.94;5034308;28;19977;-83
2023/12/30 12:24:40;;;;;;;;;;;;;;;10.81;60.77;100453.84;5050484;28;20292;-83
2023/12/30 12:27:06;;;;;;;;;;;;;;;10.70;61.41;100457.50;5033587;28;19940;-82
2023/12/30 12:29:43;;;;;;;;;;;;;;;10.57;60.71;100456.81;5041166;28;19925;-81
2023/12/30 12:32:14;;;;;;;;;;;;;;;10.67;60.45;100457.53;5042312;28;19963;-83
2023/12/30 12:34:41;;;;;;;;;;;;;;;10.43;59.13;100454.38;5047497;28;19925;-83
2023/12/30 12:37:08;;;;;;;;;;;;;;;10.56;59.47;100462.09;5044589;28;19925;-83
2023/12/30 12:39:35;;;;;;;;;;;;;;;10.74;58.96;100443.41;5038775;28;19952;-82
2023/12/30 12:42:02;;;;;;;;;;;;;;;10.89;58.96;100446.69;5027654;28;19932;-84
2023/12/30 12:44:44;;;;;;;;;;;;;;;11.06;57.78;100438.53;5030189;28;20434;-82